Ayr Alva Beach, Queensland

1:50 PM AEST on June 02, 2015 (GMT +1000)
AYR, Parkside | | Change Station
CLOSE
Current Station
Personal Weather Station
Location: Ayr, QLD
Elevation: 39 ft
Nearby Weather Stations

Elev 39 ft 19.58 °S, 147.42 °E | Updated 2 seconds ago

Scattered Clouds
Scattered Clouds
82.0 °F
Feels Like 85 °F
N
4.0
Wind Variable Wind from ENE
Gusts 10.0 mph

Today
High -- | Low -- °F
--% Chance of Precip.
Yesterday
High -- | Low -- °F
Precip. -- in
6:37 AM 5:38 PM
Full, 100% visible
Pressure 30.01 in
Visibility 6.2 miles
Clouds Few 3500 ft
Scattered Clouds 30000 ft
Heat Index 85 °F
Dew Point 68 °F
Humidity 63%
Rainfall 0.00 in
Snow Depth Not available.
UV 5 out of 12
Pollen Not available.
Air Quality Not available.
Flu Activity Not available.
METAR YBTL 020300Z 06016KT 9999 FEW035 SCT300 27/19 Q1016 INTER 0400/0600 5000 SHRA BKN020

More Conditions Fewer Conditions

Pressure 30.01 in
Visibility 6.2 miles
Clouds Few 3500 ft
Scattered Clouds 30000 ft
Heat Index 85 °F
Dew Point 68 °F
Humidity 63%
Rainfall 0.00 in
Snow Depth Not available.
UV 5 out of 12
Pollen Not available.
Air Quality Not available.
Flu Activity Not available.
METAR YBTL 020300Z 06016KT 9999 FEW035 SCT300 27/19 Q1016 INTER 0400/0600 5000 SHRA BKN020

More Conditions Fewer Conditions

10-Day Weather Forecast

Almanac

Astronomy

Jun. 02, 2015 Rise Set
Actual Time
Civil Twilight
Nautical Twilight
Astronomical Twilight
Moon
Length of Visible Light
Length of Day
Tomorrow will be .
, % of the Moon is Illuminated

Today's Extremes

Country Highs Country Lows

Community

WunderPhotos

Upload Photos

1,825,883 photos uploaded!

WunderBlogs® & News

Nearby

Air Quality

  Air Quality AQ Index Pollutant
Not available.

Snow Depth

Station Depth Elevation

Earthquake Activity

City Distance Mag. Time & Date
Minimum magnitude displayed is 2.5.

Coastal Water Temperatures

Place Temperature

Stations

Nearby Weather Stations

Station Location Temp. Windchill Dew Point Humidity Wind Precip. Elev Updated Type